Skip to main content.
Our real time weather data display below is updated continuously via our 24/7 live data feed.
 TIME   TEMPERATURE   WINDSPEED   DIRECTION   HUMIDITY   BAROMETER   RAINFALL 
8:15 18.0°C (64.4°F) 3.7 kmh (2.3 mph) NE 93% 1020.0hPa (30.12 inHg) 0.0mm (0.00 in.)
7:15 18.0°C (64.4 °F) 5.6 kmh (3.5 mph) E 93% 1020.0hPa (30.12 inHg) 0.0mm (0.00 in.)
6:15 18.0°C (64.4 °F) 1.9 kmh (1.2 mph) NE 93% 1020.0hPa (30.12 inHg) 0.0mm (0.00 in.)
5:15 18.0°C (64.4 °F) 1.9 kmh (1.2 mph) NE 93% 1020.0hPa (30.12 inHg) 0.0mm (0.00 in.)
4:15 19.0°C (66.2 °F) 1.9 kmh (1.2 mph) ESE 93% 1020.0hPa (30.12 inHg) 0.0mm (0.00 in.)
3:15 19.0°C (66.2 °F) 1.9 kmh (1.2 mph) E 88% 1020.0hPa (30.12 inHg) 0.0mm (0.00 in.)
2:15 19.0°C (66.2 °F) 1.9 kmh (1.2 mph) E 88% 1021.0hPa (30.15 inHg) 0.0mm (0.00 in.)
1:15 20.0°C (68.0 °F) 7.4 kmh (4.6 mph) SE 88% 1021.0hPa (30.15 inHg) 0.0mm (0.00 in.)
0:15 20.0°C (68.0 °F) 7.4 kmh (4.6 mph) SE 82% 1021.0hPa (30.15 inHg) 0.0mm (0.00 in.)
23:15 20.0°C (68.0 °F) 5.6 kmh (3.5 mph) ESE 88% 1021.0hPa (30.15 inHg) 0.0mm (0.00 in.)
22:15 20.0°C (68.0 °F) 5.6 kmh (3.5 mph) SE 88% 1021.0hPa (30.15 inHg) 0.0mm (0.00 in.)
21:15 21.0°C (69.8 °F) 9.3 kmh (5.8 mph) ESE 82% 1021.0hPa (30.15 inHg) 0.0mm (0.00 in.)
20:15 21.0°C (69.8 °F) 9.3 kmh (5.8 mph) ESE 82% 1021.0hPa (30.15 inHg) 0.0mm (0.00 in.)
19:15 22.0°C (71.6 °F) 9.3 kmh (5.8 mph) SE 78% 1021.0hPa (30.15 inHg) 0.0mm (0.00 in.)
18:15 23.0°C (73.4 °F) 14.8 kmh (9.2 mph) SE 73% 1021.0hPa (30.15 inHg) 0.0mm (0.00 in.)
17:15 25.0°C (77.0 °F) 13.0 kmh (8.1 mph) SSE 65% 1021.0hPa (30.15 inHg) 0.0mm (0.00 in.)
16:15 25.0°C (77.0 °F) 14.8 kmh (9.2 mph) SE 65% 1021.0hPa (30.15 inHg) 0.0mm (0.00 in.)
15:15 26.0°C (78.8 °F) 13.0 kmh (8.1 mph) SSE 61% 1022.0hPa (30.18 inHg) 0.0mm (0.00 in.)
14:15 25.0°C (77.0 °F) 13.0 kmh (8.1 mph) SSE 65% 1022.0hPa (30.18 inHg) 0.0mm (0.00 in.)
13:15 24.0°C (75.2 °F) 14.8 kmh (9.2 mph) SE 64% 1023.0hPa (30.21 inHg) 0.0mm (0.00 in.)
12:15 25.0°C (77.0 °F) 14.8 kmh (9.2 mph) SE 65% 1023.0hPa (30.21 inHg) 0.0mm (0.00 in.)
11:10 24.0°C (75.2 °F) 11.1 kmh (6.9 mph) SSE 69% 1022.0hPa (30.18 inHg) 0.0mm (0.00 in.)
10:10 23.0°C (73.4 °F) 13.0 kmh (8.1 mph) SSE 73% 1022.0hPa (30.18 inHg) 0.0mm (0.00 in.)
9:10 22.0°C (71.6 °F) 7.4 kmh (4.6 mph) SE 83% 1022.0hPa (30.18 inHg) 0.0mm (0.00 in.)